sensor_id;sensor_type;location;lat;lon;timestamp;temperature;humidity
38995;DHT22;24769;18.712;99.000;2024-03-02T00:01:24;18.60;95.10
38995;DHT22;24769;18.712;99.000;2024-03-02T00:05:26;18.70;93.90
38995;DHT22;24769;18.712;99.000;2024-03-02T00:07:55;18.70;93.90
38995;DHT22;24769;18.712;99.000;2024-03-02T00:11:44;18.60;95.50
38995;DHT22;24769;18.712;99.000;2024-03-02T00:14:11;18.60;97.00
38995;DHT22;24769;18.712;99.000;2024-03-02T00:16:38;18.70;97.00
38995;DHT22;24769;18.712;99.000;2024-03-02T00:19:06;19.00;93.70
38995;DHT22;24769;18.712;99.000;2024-03-02T00:21:33;18.90;93.90
38995;DHT22;24769;18.712;99.000;2024-03-02T00:24:02;19.00;93.80
38995;DHT22;24769;18.712;99.000;2024-03-02T00:26:33;19.20;92.60
38995;DHT22;24769;18.712;99.000;2024-03-02T00:29:00;19.30;91.00
38995;DHT22;24769;18.712;99.000;2024-03-02T00:31:26;19.40;91.00
38995;DHT22;24769;18.712;99.000;2024-03-02T00:33:53;19.50;91.10
38995;DHT22;24769;18.712;99.000;2024-03-02T00:36:26;19.60;90.50
38995;DHT22;24769;18.712;99.000;2024-03-02T00:38:54;19.80;90.00
38995;DHT22;24769;18.712;99.000;2024-03-02T00:41:25;19.90;89.80
38995;DHT22;24769;18.712;99.000;2024-03-02T00:44:03;20.10;88.50
38995;DHT22;24769;18.712;99.000;2024-03-02T00:46:37;20.30;86.00
38995;DHT22;24769;18.712;99.000;2024-03-02T00:51:33;20.60;78.90
38995;DHT22;24769;18.712;99.000;2024-03-02T00:54:05;20.80;72.90
38995;DHT22;24769;18.712;99.000;2024-03-02T00:56:33;20.90;78.00
38995;DHT22;24769;18.712;99.000;2024-03-02T00:59:01;21.10;73.40
38995;DHT22;24769;18.712;99.000;2024-03-02T01:01:27;21.30;65.60
38995;DHT22;24769;18.712;99.000;2024-03-02T01:03:54;21.40;68.50
38995;DHT22;24769;18.712;99.000;2024-03-02T01:06:21;21.50;57.50
38995;DHT22;24769;18.712;99.000;2024-03-02T01:08:48;21.60;58.00
38995;DHT22;24769;18.712;99.000;2024-03-02T01:11:17;21.80;54.80
38995;DHT22;24769;18.712;99.000;2024-03-02T01:13:45;22.00;53.50
38995;DHT22;24769;18.712;99.000;2024-03-02T01:16:12;22.20;51.60
38995;DHT22;24769;18.712;99.000;2024-03-02T01:18:39;22.40;52.60
38995;DHT22;24769;18.712;99.000;2024-03-02T01:21:06;22.30;48.40
38995;DHT22;24769;18.712;99.000;2024-03-02T01:23:32;22.20;47.40
38995;DHT22;24769;18.712;99.000;2024-03-02T01:25:59;22.50;50.40
38995;DHT22;24769;18.712;99.000;2024-03-02T01:28:26;22.80;47.70
38995;DHT22;24769;18.712;99.000;2024-03-02T01:30:53;23.00;45.70
38995;DHT22;24769;18.712;99.000;2024-03-02T01:33:20;23.10;46.30
38995;DHT22;24769;18.712;99.000;2024-03-02T01:35:47;23.00;40.90
38995;DHT22;24769;18.712;99.000;2024-03-02T01:38:14;23.00;44.20
38995;DHT22;24769;18.712;99.000;2024-03-02T01:40:41;23.10;41.10
38995;DHT22;24769;18.712;99.000;2024-03-02T01:43:08;23.20;41.70
38995;DHT22;24769;18.712;99.000;2024-03-02T01:45:35;23.30;41.20
38995;DHT22;24769;18.712;99.000;2024-03-02T01:48:05;23.50;37.10
38995;DHT22;24769;18.712;99.000;2024-03-02T01:50:33;23.50;38.00
38995;DHT22;24769;18.712;99.000;2024-03-02T01:53:01;24.10;36.90
38995;DHT22;24769;18.712;99.000;2024-03-02T01:55:31;24.30;33.20
38995;DHT22;24769;18.712;99.000;2024-03-02T01:57:59;24.80;32.20
38995;DHT22;24769;18.712;99.000;2024-03-02T02:00:26;25.00;26.10
38995;DHT22;24769;18.712;99.000;2024-03-02T02:02:54;25.40;24.30
38995;DHT22;24769;18.712;99.000;2024-03-02T02:05:24;25.10;22.90
38995;DHT22;24769;18.712;99.000;2024-03-02T02:07:51;25.50;21.70
38995;DHT22;24769;18.712;99.000;2024-03-02T02:10:18;25.90;19.40
38995;DHT22;24769;18.712;99.000;2024-03-02T02:12:44;26.20;18.70
38995;DHT22;24769;18.712;99.000;2024-03-02T02:15:30;25.90;18.50
38995;DHT22;24769;18.712;99.000;2024-03-02T02:17:58;25.70;21.20
38995;DHT22;24769;18.712;99.000;2024-03-02T02:20:25;25.60;18.80
38995;DHT22;24769;18.712;99.000;2024-03-02T02:23:03;25.90;18.60
38995;DHT22;24769;18.712;99.000;2024-03-02T02:25:31;26.30;17.20
38995;DHT22;24769;18.712;99.000;2024-03-02T02:27:58;26.00;17.70
38995;DHT22;24769;18.712;99.000;2024-03-02T02:30:26;26.40;18.60
38995;DHT22;24769;18.712;99.000;2024-03-02T02:32:57;26.90;16.90
38995;DHT22;24769;18.712;99.000;2024-03-02T02:35:24;26.80;14.60
38995;DHT22;24769;18.712;99.000;2024-03-02T02:37:52;26.70;15.10
38995;DHT22;24769;18.712;99.000;2024-03-02T02:40:19;26.30;15.80
38995;DHT22;24769;18.712;99.000;2024-03-02T02:42:46;26.50;17.00
38995;DHT22;24769;18.712;99.000;2024-03-02T02:45:13;26.80;14.10
38995;DHT22;24769;18.712;99.000;2024-03-02T02:47:43;26.90;14.60
38995;DHT22;24769;18.712;99.000;2024-03-02T02:50:11;27.40;14.00
38995;DHT22;24769;18.712;99.000;2024-03-02T02:52:40;27.30;13.10
38995;DHT22;24769;18.712;99.000;2024-03-02T02:55:11;27.40;12.60
38995;DHT22;24769;18.712;99.000;2024-03-02T02:57:41;27.80;11.90
38995;DHT22;24769;18.712;99.000;2024-03-02T03:00:13;28.10;11.10
38995;DHT22;24769;18.712;99.000;2024-03-02T03:02:46;28.00;10.00
38995;DHT22;24769;18.712;99.000;2024-03-02T03:05:15;28.40;10.40
38995;DHT22;24769;18.712;99.000;2024-03-02T03:07:42;28.30;8.80
38995;DHT22;24769;18.712;99.000;2024-03-02T03:10:10;28.20;8.90
38995;DHT22;24769;18.712;99.000;2024-03-02T03:12:37;28.00;9.30
38995;DHT22;24769;18.712;99.000;2024-03-02T03:15:04;28.00;8.90
38995;DHT22;24769;18.712;99.000;2024-03-02T03:17:32;28.20;9.20
38995;DHT22;24769;18.712;99.000;2024-03-02T03:19:59;28.40;7.90
38995;DHT22;24769;18.712;99.000;2024-03-02T03:22:27;29.00;7.70
38995;DHT22;24769;18.712;99.000;2024-03-02T03:24:53;29.20;6.30
38995;DHT22;24769;18.712;99.000;2024-03-02T03:27:21;28.80;6.20
38995;DHT22;24769;18.712;99.000;2024-03-02T03:29:48;28.80;4.30
38995;DHT22;24769;18.712;99.000;2024-03-02T03:32:14;28.80;5.80
38995;DHT22;24769;18.712;99.000;2024-03-02T03:34:43;28.90;3.10
38995;DHT22;24769;18.712;99.000;2024-03-02T03:37:09;29.10;4.80
38995;DHT22;24769;18.712;99.000;2024-03-02T03:39:36;29.20;5.20
38995;DHT22;24769;18.712;99.000;2024-03-02T03:42:03;29.90;3.70
38995;DHT22;24769;18.712;99.000;2024-03-02T03:44:30;30.10;2.90
38995;DHT22;24769;18.712;99.000;2024-03-02T03:46:57;30.20;2.50
38995;DHT22;24769;18.712;99.000;2024-03-02T03:49:24;30.30;1.60
38995;DHT22;24769;18.712;99.000;2024-03-02T03:51:50;30.20;1.80
38995;DHT22;24769;18.712;99.000;2024-03-02T03:54:17;30.00;2.10
38995;DHT22;24769;18.712;99.000;2024-03-02T03:56:44;30.30;1.60
38995;DHT22;24769;18.712;99.000;2024-03-02T03:59:10;30.30;1.10
38995;DHT22;24769;18.712;99.000;2024-03-02T04:01:38;29.80;1.00
38995;DHT22;24769;18.712;99.000;2024-03-02T04:04:05;30.30;1.00
38995;DHT22;24769;18.712;99.000;2024-03-02T04:06:31;30.00;1.00
38995;DHT22;24769;18.712;99.000;2024-03-02T04:08:58;30.20;1.00
38995;DHT22;24769;18.712;99.000;2024-03-02T04:11:25;30.80;1.00
38995;DHT22;24769;18.712;99.000;2024-03-02T04:13:52;31.00;1.00
38995;DHT22;24769;18.712;99.000;2024-03-02T04:16:18;31.00;1.00
38995;DHT22;24769;18.712;99.000;2024-03-02T04:18:45;31.40;1.00
38995;DHT22;24769;18.712;99.000;2024-03-02T04:21:12;31.40;1.00
38995;DHT22;24769;18.712;99.000;2024-03-02T04:23:39;31.30;1.00
38995;DHT22;24769;18.712;99.000;2024-03-02T04:26:05;30.80;1.00
38995;DHT22;24769;18.712;99.000;2024-03-02T04:28:32;30.90;1.00
38995;DHT22;24769;18.712;99.000;2024-03-02T04:30:59;31.20;1.00
38995;DHT22;24769;18.712;99.000;2024-03-02T04:33:25;31.40;1.00
38995;DHT22;24769;18.712;99.000;2024-03-02T04:35:52;31.60;1.00
38995;DHT22;24769;18.712;99.000;2024-03-02T04:38:19;31.80;1.00
38995;DHT22;24769;18.712;99.000;2024-03-02T04:40:45;31.70;1.00
38995;DHT22;24769;18.712;99.000;2024-03-02T04:43:12;32.00;1.00
38995;DHT22;24769;18.712;99.000;2024-03-02T04:45:42;32.10;1.00
38995;DHT22;24769;18.712;99.000;2024-03-02T04:48:09;32.50;1.00
38995;DHT22;24769;18.712;99.000;2024-03-02T04:50:39;32.70;1.00
38995;DHT22;24769;18.712;99.000;2024-03-02T04:53:05;32.70;1.00
38995;DHT22;24769;18.712;99.000;2024-03-02T04:55:32;32.40;1.00
38995;DHT22;24769;18.712;99.000;2024-03-02T04:58:22;32.70;1.00
38995;DHT22;24769;18.712;99.000;2024-03-02T05:00:48;33.00;1.00
38995;DHT22;24769;18.712;99.000;2024-03-02T05:03:15;33.20;1.00
38995;DHT22;24769;18.712;99.000;2024-03-02T05:05:42;33.10;1.00
38995;DHT22;24769;18.712;99.000;2024-03-02T05:08:08;33.10;1.00
38995;DHT22;24769;18.712;99.000;2024-03-02T05:10:38;33.00;1.00
38995;DHT22;24769;18.712;99.000;2024-03-02T05:13:04;32.90;1.00
38995;DHT22;24769;18.712;99.000;2024-03-02T05:15:31;33.10;1.00
38995;DHT22;24769;18.712;99.000;2024-03-02T05:17:58;33.60;1.00
38995;DHT22;24769;18.712;99.000;2024-03-02T05:20:25;33.50;1.00
38995;DHT22;24769;18.712;99.000;2024-03-02T05:22:53;33.50;1.00
38995;DHT22;24769;18.712;99.000;2024-03-02T05:25:20;33.80;1.00
38995;DHT22;24769;18.712;99.000;2024-03-02T05:27:47;33.60;1.00
38995;DHT22;24769;18.712;99.000;2024-03-02T05:30:13;33.40;1.00
38995;DHT22;24769;18.712;99.000;2024-03-02T05:32:41;33.40;1.00
38995;DHT22;24769;18.712;99.000;2024-03-02T05:35:08;33.80;1.00
38995;DHT22;24769;18.712;99.000;2024-03-02T05:37:36;33.80;1.00
38995;DHT22;24769;18.712;99.000;2024-03-02T05:40:03;34.00;1.00
38995;DHT22;24769;18.712;99.000;2024-03-02T05:42:31;34.20;1.00
38995;DHT22;24769;18.712;99.000;2024-03-02T05:44:58;33.90;1.00
38995;DHT22;24769;18.712;99.000;2024-03-02T05:47:25;33.80;1.00
38995;DHT22;24769;18.712;99.000;2024-03-02T05:49:52;33.30;1.00
38995;DHT22;24769;18.712;99.000;2024-03-02T05:52:18;33.70;1.00
38995;DHT22;24769;18.712;99.000;2024-03-02T05:54:46;34.00;1.00
38995;DHT22;24769;18.712;99.000;2024-03-02T05:57:15;33.80;1.00
38995;DHT22;24769;18.712;99.000;2024-03-02T05:59:59;33.90;1.00
38995;DHT22;24769;18.712;99.000;2024-03-02T06:02:26;33.80;1.00
38995;DHT22;24769;18.712;99.000;2024-03-02T06:04:55;34.00;1.00
38995;DHT22;24769;18.712;99.000;2024-03-02T06:07:22;33.90;1.00
38995;DHT22;24769;18.712;99.000;2024-03-02T06:09:49;33.70;1.00
38995;DHT22;24769;18.712;99.000;2024-03-02T06:12:18;33.70;1.00
38995;DHT22;24769;18.712;99.000;2024-03-02T06:14:45;34.00;1.00
38995;DHT22;24769;18.712;99.000;2024-03-02T06:17:12;34.00;1.00
38995;DHT22;24769;18.712;99.000;2024-03-02T06:19:39;33.40;1.00
38995;DHT22;24769;18.712;99.000;2024-03-02T06:22:06;33.80;1.00
38995;DHT22;24769;18.712;99.000;2024-03-02T06:24:36;34.20;1.00
38995;DHT22;24769;18.712;99.000;2024-03-02T06:27:06;34.70;1.00
38995;DHT22;24769;18.712;99.000;2024-03-02T06:29:33;34.50;1.00
38995;DHT22;24769;18.712;99.000;2024-03-02T06:32:00;34.80;1.00
38995;DHT22;24769;18.712;99.000;2024-03-02T06:34:27;35.10;1.00
38995;DHT22;24769;18.712;99.000;2024-03-02T06:36:54;35.20;1.00
38995;DHT22;24769;18.712;99.000;2024-03-02T06:39:20;35.30;1.00
38995;DHT22;24769;18.712;99.000;2024-03-02T06:41:47;35.40;1.00
38995;DHT22;24769;18.712;99.000;2024-03-02T06:44:14;35.30;1.00
38995;DHT22;24769;18.712;99.000;2024-03-02T06:46:40;35.50;1.00
38995;DHT22;24769;18.712;99.000;2024-03-02T06:49:07;35.60;1.00
38995;DHT22;24769;18.712;99.000;2024-03-02T06:51:35;35.20;1.00
38995;DHT22;24769;18.712;99.000;2024-03-02T06:54:02;35.30;1.00
38995;DHT22;24769;18.712;99.000;2024-03-02T06:56:29;35.40;1.00
38995;DHT22;24769;18.712;99.000;2024-03-02T06:58:56;35.10;1.00
38995;DHT22;24769;18.712;99.000;2024-03-02T07:01:23;35.30;1.00
38995;DHT22;24769;18.712;99.000;2024-03-02T07:03:52;35.40;1.00
38995;DHT22;24769;18.712;99.000;2024-03-02T07:06:19;35.40;1.00
38995;DHT22;24769;18.712;99.000;2024-03-02T07:08:46;35.40;1.00
38995;DHT22;24769;18.712;99.000;2024-03-02T07:11:13;35.50;1.00
38995;DHT22;24769;18.712;99.000;2024-03-02T07:13:39;35.60;1.00
38995;DHT22;24769;18.712;99.000;2024-03-02T07:16:07;35.60;1.00
38995;DHT22;24769;18.712;99.000;2024-03-02T07:18:37;35.30;1.00
38995;DHT22;24769;18.712;99.000;2024-03-02T07:21:07;35.10;1.00
38995;DHT22;24769;18.712;99.000;2024-03-02T07:23:34;35.00;1.00
38995;DHT22;24769;18.712;99.000;2024-03-02T07:26:01;35.40;1.00
38995;DHT22;24769;18.712;99.000;2024-03-02T07:28:29;35.60;1.00
38995;DHT22;24769;18.712;99.000;2024-03-02T07:31:03;35.50;1.00
38995;DHT22;24769;18.712;99.000;2024-03-02T07:33:33;35.40;1.00
38995;DHT22;24769;18.712;99.000;2024-03-02T07:36:00;35.50;1.00
38995;DHT22;24769;18.712;99.000;2024-03-02T07:38:28;35.60;1.00
38995;DHT22;24769;18.712;99.000;2024-03-02T07:40:55;35.30;1.00
38995;DHT22;24769;18.712;99.000;2024-03-02T07:43:22;35.20;1.00
38995;DHT22;24769;18.712;99.000;2024-03-02T07:45:49;35.10;1.00
38995;DHT22;24769;18.712;99.000;2024-03-02T07:48:16;35.10;1.00
38995;DHT22;24769;18.712;99.000;2024-03-02T07:50:44;35.30;1.00
38995;DHT22;24769;18.712;99.000;2024-03-02T07:53:11;35.50;1.00
38995;DHT22;24769;18.712;99.000;2024-03-02T07:55:38;35.20;1.00
38995;DHT22;24769;18.712;99.000;2024-03-02T07:58:04;35.20;1.00
38995;DHT22;24769;18.712;99.000;2024-03-02T08:00:31;35.20;1.00
38995;DHT22;24769;18.712;99.000;2024-03-02T08:02:58;35.30;1.00
38995;DHT22;24769;18.712;99.000;2024-03-02T08:05:25;35.20;1.00
38995;DHT22;24769;18.712;99.000;2024-03-02T08:07:53;35.30;1.00
38995;DHT22;24769;18.712;99.000;2024-03-02T08:10:20;35.50;1.00
38995;DHT22;24769;18.712;99.000;2024-03-02T08:12:47;35.60;1.00
38995;DHT22;24769;18.712;99.000;2024-03-02T08:15:14;35.30;1.00
38995;DHT22;24769;18.712;99.000;2024-03-02T08:17:41;35.10;1.00
38995;DHT22;24769;18.712;99.000;2024-03-02T08:20:22;35.30;1.00
38995;DHT22;24769;18.712;99.000;2024-03-02T08:22:52;35.20;1.00
38995;DHT22;24769;18.712;99.000;2024-03-02T08:25:21;35.20;1.00
38995;DHT22;24769;18.712;99.000;2024-03-02T08:27:48;35.20;1.00
38995;DHT22;24769;18.712;99.000;2024-03-02T08:30:15;35.30;1.00
38995;DHT22;24769;18.712;99.000;2024-03-02T08:32:42;35.30;1.00
38995;DHT22;24769;18.712;99.000;2024-03-02T08:35:08;35.20;1.00
38995;DHT22;24769;18.712;99.000;2024-03-02T08:37:36;35.20;1.00
38995;DHT22;24769;18.712;99.000;2024-03-02T08:40:04;35.30;1.00
38995;DHT22;24769;18.712;99.000;2024-03-02T08:42:33;35.20;1.00
38995;DHT22;24769;18.712;99.000;2024-03-02T08:45:00;35.20;1.00
38995;DHT22;24769;18.712;99.000;2024-03-02T08:47:27;35.10;1.00
38995;DHT22;24769;18.712;99.000;2024-03-02T08:49:57;35.10;1.00
38995;DHT22;24769;18.712;99.000;2024-03-02T08:52:24;35.10;1.00
38995;DHT22;24769;18.712;99.000;2024-03-02T08:54:50;35.20;1.00
38995;DHT22;24769;18.712;99.000;2024-03-02T08:57:17;35.10;1.00
38995;DHT22;24769;18.712;99.000;2024-03-02T08:59:44;35.20;1.00
38995;DHT22;24769;18.712;99.000;2024-03-02T09:02:11;35.00;1.00
38995;DHT22;24769;18.712;99.000;2024-03-02T09:04:38;35.10;1.00
38995;DHT22;24769;18.712;99.000;2024-03-02T09:07:05;35.20;1.00
38995;DHT22;24769;18.712;99.000;2024-03-02T09:09:33;35.10;1.00
38995;DHT22;24769;18.712;99.000;2024-03-02T09:12:00;35.10;1.00
38995;DHT22;24769;18.712;99.000;2024-03-02T09:14:26;34.90;1.00
38995;DHT22;24769;18.712;99.000;2024-03-02T09:16:53;34.80;1.00
38995;DHT22;24769;18.712;99.000;2024-03-02T09:19:20;34.80;1.00
38995;DHT22;24769;18.712;99.000;2024-03-02T09:21:47;34.70;1.00
38995;DHT22;24769;18.712;99.000;2024-03-02T09:24:13;34.70;1.00
38995;DHT22;24769;18.712;99.000;2024-03-02T09:26:40;34.80;1.00
38995;DHT22;24769;18.712;99.000;2024-03-02T09:29:07;34.60;1.00
38995;DHT22;24769;18.712;99.000;2024-03-02T09:31:42;34.50;1.00
38995;DHT22;24769;18.712;99.000;2024-03-02T09:34:09;34.60;1.00
38995;DHT22;24769;18.712;99.000;2024-03-02T09:36:36;34.50;1.00
38995;DHT22;24769;18.712;99.000;2024-03-02T09:39:03;34.50;1.00
38995;DHT22;24769;18.712;99.000;2024-03-02T09:41:30;34.50;1.00
38995;DHT22;24769;18.712;99.000;2024-03-02T09:43:57;34.50;1.00
38995;DHT22;24769;18.712;99.000;2024-03-02T09:46:24;34.30;1.00
38995;DHT22;24769;18.712;99.000;2024-03-02T09:48:51;34.30;1.00
38995;DHT22;24769;18.712;99.000;2024-03-02T09:51:19;34.10;1.00
38995;DHT22;24769;18.712;99.000;2024-03-02T09:53:46;34.10;1.00
38995;DHT22;24769;18.712;99.000;2024-03-02T09:56:13;34.10;1.00
38995;DHT22;24769;18.712;99.000;2024-03-02T09:58:47;34.10;1.00
38995;DHT22;24769;18.712;99.000;2024-03-02T10:01:14;33.90;1.00
38995;DHT22;24769;18.712;99.000;2024-03-02T10:03:41;33.70;1.00
38995;DHT22;24769;18.712;99.000;2024-03-02T10:06:24;33.60;1.00
38995;DHT22;24769;18.712;99.000;2024-03-02T10:08:52;33.60;1.00
38995;DHT22;24769;18.712;99.000;2024-03-02T10:11:34;33.50;1.00
38995;DHT22;24769;18.712;99.000;2024-03-02T10:14:09;33.50;1.00
38995;DHT22;24769;18.712;99.000;2024-03-02T10:16:41;33.30;1.00
38995;DHT22;24769;18.712;99.000;2024-03-02T10:19:18;33.10;1.00
38995;DHT22;24769;18.712;99.000;2024-03-02T10:21:46;33.00;1.00
38995;DHT22;24769;18.712;99.000;2024-03-02T10:24:13;32.70;1.00
38995;DHT22;24769;18.712;99.000;2024-03-02T10:26:40;32.50;1.00
38995;DHT22;24769;18.712;99.000;2024-03-02T10:29:11;32.30;1.00
38995;DHT22;24769;18.712;99.000;2024-03-02T10:31:39;32.30;1.00
38995;DHT22;24769;18.712;99.000;2024-03-02T10:34:07;32.10;1.00
38995;DHT22;24769;18.712;99.000;2024-03-02T10:36:35;32.10;1.00
38995;DHT22;24769;18.712;99.000;2024-03-02T10:39:03;32.00;1.00
38995;DHT22;24769;18.712;99.000;2024-03-02T10:41:35;31.80;1.00
38995;DHT22;24769;18.712;99.000;2024-03-02T10:44:09;31.60;1.00
38995;DHT22;24769;18.712;99.000;2024-03-02T10:46:38;31.50;1.00
38995;DHT22;24769;18.712;99.000;2024-03-02T10:49:06;31.40;1.00
38995;DHT22;24769;18.712;99.000;2024-03-02T10:51:33;31.10;1.00
38995;DHT22;24769;18.712;99.000;2024-03-02T10:54:03;31.00;1.00
38995;DHT22;24769;18.712;99.000;2024-03-02T10:56:31;30.80;1.00
38995;DHT22;24769;18.712;99.000;2024-03-02T10:59:27;30.50;1.00
38995;DHT22;24769;18.712;99.000;2024-03-02T11:01:59;30.60;1.00
38995;DHT22;24769;18.712;99.000;2024-03-02T11:04:27;30.90;1.00
38995;DHT22;24769;18.712;99.000;2024-03-02T11:07:13;30.90;1.00
38995;DHT22;24769;18.712;99.000;2024-03-02T11:10:00;31.00;1.00
38995;DHT22;24769;18.712;99.000;2024-03-02T11:12:41;31.10;1.00
38995;DHT22;24769;18.712;99.000;2024-03-02T11:15:17;31.20;1.00
38995;DHT22;24769;18.712;99.000;2024-03-02T11:17:46;31.30;1.00
38995;DHT22;24769;18.712;99.000;2024-03-02T11:20:14;31.40;1.00
38995;DHT22;24769;18.712;99.000;2024-03-02T11:22:45;31.40;1.00
38995;DHT22;24769;18.712;99.000;2024-03-02T11:25:27;31.20;1.00
38995;DHT22;24769;18.712;99.000;2024-03-02T11:33:01;31.00;1.00
38995;DHT22;24769;18.712;99.000;2024-03-02T11:35:35;31.00;1.00
38995;DHT22;24769;18.712;99.000;2024-03-02T11:38:03;31.00;1.00
38995;DHT22;24769;18.712;99.000;2024-03-02T11:40:31;30.90;1.20
38995;DHT22;24769;18.712;99.000;2024-03-02T11:43:00;30.90;2.20
38995;DHT22;24769;18.712;99.000;2024-03-02T11:45:27;31.00;2.70
38995;DHT22;24769;18.712;99.000;2024-03-02T11:47:58;30.90;2.90
38995;DHT22;24769;18.712;99.000;2024-03-02T11:50:47;30.80;3.20
38995;DHT22;24769;18.712;99.000;2024-03-02T11:53:15;30.70;3.80
38995;DHT22;24769;18.712;99.000;2024-03-02T11:55:43;30.70;4.90
38995;DHT22;24769;18.712;99.000;2024-03-02T11:58:13;30.50;4.80
38995;DHT22;24769;18.712;99.000;2024-03-02T12:00:40;30.40;5.50
38995;DHT22;24769;18.712;99.000;2024-03-02T12:03:13;30.50;5.90
38995;DHT22;24769;18.712;99.000;2024-03-02T12:05:40;30.40;6.20
38995;DHT22;24769;18.712;99.000;2024-03-02T12:08:07;30.40;6.80
38995;DHT22;24769;18.712;99.000;2024-03-02T12:10:35;30.30;7.40
38995;DHT22;24769;18.712;99.000;2024-03-02T12:13:05;30.20;7.70
38995;DHT22;24769;18.712;99.000;2024-03-02T12:15:39;30.10;8.50
38995;DHT22;24769;18.712;99.000;2024-03-02T12:18:08;30.10;8.70
38995;DHT22;24769;18.712;99.000;2024-03-02T12:20:36;30.10;9.10
38995;DHT22;24769;18.712;99.000;2024-03-02T12:23:07;30.20;9.10
38995;DHT22;24769;18.712;99.000;2024-03-02T12:25:34;30.20;9.10
38995;DHT22;24769;18.712;99.000;2024-03-02T12:28:01;30.20;9.60
38995;DHT22;24769;18.712;99.000;2024-03-02T12:30:30;30.10;9.90
38995;DHT22;24769;18.712;99.000;2024-03-02T12:32:57;30.10;10.10
38995;DHT22;24769;18.712;99.000;2024-03-02T12:35:25;30.10;10.40
38995;DHT22;24769;18.712;99.000;2024-03-02T12:37:53;30.10;10.40
38995;DHT22;24769;18.712;99.000;2024-03-02T12:40:21;30.00;10.60
38995;DHT22;24769;18.712;99.000;2024-03-02T12:42:49;29.90;11.00
38995;DHT22;24769;18.712;99.000;2024-03-02T12:45:17;29.80;11.80
38995;DHT22;24769;18.712;99.000;2024-03-02T12:47:50;29.60;12.50
38995;DHT22;24769;18.712;99.000;2024-03-02T12:50:20;29.60;12.60
38995;DHT22;24769;18.712;99.000;2024-03-02T12:52:53;29.40;13.00
38995;DHT22;24769;18.712;99.000;2024-03-02T12:55:21;29.40;13.60
38995;DHT22;24769;18.712;99.000;2024-03-02T12:57:51;29.10;15.00
38995;DHT22;24769;18.712;99.000;2024-03-02T13:00:19;28.90;16.30
38995;DHT22;24769;18.712;99.000;2024-03-02T13:02:47;28.70;16.90
38995;DHT22;24769;18.712;99.000;2024-03-02T13:05:17;28.60;17.80
38995;DHT22;24769;18.712;99.000;2024-03-02T13:07:47;28.50;18.50
38995;DHT22;24769;18.712;99.000;2024-03-02T13:10:14;28.30;20.80
38995;DHT22;24769;18.712;99.000;2024-03-02T13:12:41;28.30;20.80
38995;DHT22;24769;18.712;99.000;2024-03-02T13:15:09;28.40;20.20
38995;DHT22;24769;18.712;99.000;2024-03-02T13:17:36;28.30;20.60
38995;DHT22;24769;18.712;99.000;2024-03-02T13:20:03;28.20;22.10
38995;DHT22;24769;18.712;99.000;2024-03-02T13:22:36;28.00;23.50
38995;DHT22;24769;18.712;99.000;2024-03-02T13:25:03;27.80;24.60
38995;DHT22;24769;18.712;99.000;2024-03-02T13:27:31;27.80;24.80
38995;DHT22;24769;18.712;99.000;2024-03-02T13:29:58;27.60;26.30
38995;DHT22;24769;18.712;99.000;2024-03-02T13:32:25;27.70;26.30
38995;DHT22;24769;18.712;99.000;2024-03-02T13:34:52;27.80;26.10
38995;DHT22;24769;18.712;99.000;2024-03-02T13:37:19;27.80;25.40
38995;DHT22;24769;18.712;99.000;2024-03-02T13:39:46;28.00;25.60
38995;DHT22;24769;18.712;99.000;2024-03-02T13:42:13;28.00;25.10
38995;DHT22;24769;18.712;99.000;2024-03-02T13:44:43;28.30;24.20
38995;DHT22;24769;18.712;99.000;2024-03-02T13:47:15;28.30;24.10
38995;DHT22;24769;18.712;99.000;2024-03-02T13:49:42;28.00;25.70
38995;DHT22;24769;18.712;99.000;2024-03-02T13:52:15;27.80;27.30
38995;DHT22;24769;18.712;99.000;2024-03-02T13:54:44;27.60;28.30
38995;DHT22;24769;18.712;99.000;2024-03-02T13:57:12;27.50;29.20
38995;DHT22;24769;18.712;99.000;2024-03-02T13:59:39;27.30;31.30
38995;DHT22;24769;18.712;99.000;2024-03-02T14:02:06;27.10;32.80
38995;DHT22;24769;18.712;99.000;2024-03-02T14:04:35;27.10;33.70
38995;DHT22;24769;18.712;99.000;2024-03-02T14:07:03;27.20;32.70
38995;DHT22;24769;18.712;99.000;2024-03-02T14:09:30;27.10;33.40
38995;DHT22;24769;18.712;99.000;2024-03-02T14:11:57;26.90;34.40
38995;DHT22;24769;18.712;99.000;2024-03-02T14:14:24;26.80;34.50
38995;DHT22;24769;18.712;99.000;2024-03-02T14:16:50;26.70;35.80
38995;DHT22;24769;18.712;99.000;2024-03-02T14:19:18;26.70;36.10
38995;DHT22;24769;18.712;99.000;2024-03-02T14:21:44;26.70;37.20
38995;DHT22;24769;18.712;99.000;2024-03-02T14:24:11;26.40;37.40
38995;DHT22;24769;18.712;99.000;2024-03-02T14:26:39;26.30;38.30
38995;DHT22;24769;18.712;99.000;2024-03-02T14:29:06;26.30;38.90
38995;DHT22;24769;18.712;99.000;2024-03-02T14:31:33;26.20;39.30
38995;DHT22;24769;18.712;99.000;2024-03-02T14:34:00;26.10;40.30
38995;DHT22;24769;18.712;99.000;2024-03-02T14:36:27;26.10;39.70
38995;DHT22;24769;18.712;99.000;2024-03-02T14:38:54;26.20;38.50
38995;DHT22;24769;18.712;99.000;2024-03-02T14:41:21;26.20;38.20
38995;DHT22;24769;18.712;99.000;2024-03-02T14:43:51;26.20;37.70
38995;DHT22;24769;18.712;99.000;2024-03-02T14:46:19;26.20;36.70
38995;DHT22;24769;18.712;99.000;2024-03-02T14:48:46;26.30;35.00
38995;DHT22;24769;18.712;99.000;2024-03-02T14:51:16;26.30;33.10
38995;DHT22;24769;18.712;99.000;2024-03-02T14:53:43;26.40;30.80
38995;DHT22;24769;18.712;99.000;2024-03-02T14:56:10;26.40;29.70
38995;DHT22;24769;18.712;99.000;2024-03-02T14:58:39;26.40;26.80
38995;DHT22;24769;18.712;99.000;2024-03-02T15:01:06;26.30;27.00
38995;DHT22;24769;18.712;99.000;2024-03-02T15:03:33;26.30;25.70
38995;DHT22;24769;18.712;99.000;2024-03-02T15:06:02;26.40;22.70
38995;DHT22;24769;18.712;99.000;2024-03-02T15:08:30;26.20;21.00
38995;DHT22;24769;18.712;99.000;2024-03-02T15:10:57;26.30;20.70
38995;DHT22;24769;18.712;99.000;2024-03-02T15:13:26;26.30;19.90
38995;DHT22;24769;18.712;99.000;2024-03-02T15:15:53;26.20;19.80
38995;DHT22;24769;18.712;99.000;2024-03-02T15:18:20;26.20;18.80
38995;DHT22;24769;18.712;99.000;2024-03-02T15:20:46;26.00;19.30
38995;DHT22;24769;18.712;99.000;2024-03-02T15:23:13;26.00;17.00
38995;DHT22;24769;18.712;99.000;2024-03-02T15:25:40;25.90;17.50
38995;DHT22;24769;18.712;99.000;2024-03-02T15:28:07;25.90;17.30
38995;DHT22;24769;18.712;99.000;2024-03-02T15:30:33;25.60;15.70
38995;DHT22;24769;18.712;99.000;2024-03-02T15:33:00;26.00;14.60
38995;DHT22;24769;18.712;99.000;2024-03-02T15:35:27;25.80;13.40
38995;DHT22;24769;18.712;99.000;2024-03-02T15:37:54;25.70;13.60
38995;DHT22;24769;18.712;99.000;2024-03-02T15:40:20;25.60;14.50
38995;DHT22;24769;18.712;99.000;2024-03-02T15:42:47;25.50;11.90